createdAt,value
2023-02-28T00:01:52.189Z,3.92
2023-02-28T00:06:54.352Z,4.38
2023-02-28T00:11:57.958Z,4.97
2023-02-28T00:17:00.144Z,4.55
2023-02-28T00:22:02.387Z,3.95
2023-02-28T00:27:05.932Z,4.97
2023-02-28T00:32:08.138Z,4.38
2023-02-28T00:37:11.742Z,3.50
2023-02-28T00:42:15.356Z,3.97
2023-02-28T00:47:17.656Z,3.80
2023-02-28T00:52:20.054Z,3.88
2023-02-28T00:57:24.061Z,4.30
2023-02-28T01:02:26.261Z,3.80
2023-02-28T01:07:28.362Z,4.05
2023-02-28T01:12:31.929Z,3.80
2023-02-28T01:17:34.076Z,3.78
2023-02-28T01:22:36.483Z,5.00
2023-02-28T01:27:40.112Z,4.10
2023-02-28T01:32:42.242Z,4.45
2023-02-28T01:37:44.588Z,4.20
2023-02-28T01:42:48.222Z,3.63
2023-02-28T01:47:53.469Z,3.53
2023-02-28T01:52:58.452Z,3.97
2023-02-28T01:58:05.653Z,3.70
2023-02-28T02:08:14.378Z,3.88
2023-02-28T02:13:47.138Z,3.83
2023-02-28T02:18:54.457Z,3.90
2023-02-28T02:29:48.137Z,3.60
2023-02-28T02:35:02.021Z,3.90
2023-02-28T02:40:14.801Z,3.40
2023-02-28T02:45:23.897Z,3.60
2023-02-28T02:50:32.556Z,3.35
2023-02-28T02:55:38.790Z,3.60
2023-02-28T03:00:44.745Z,3.70
2023-02-28T03:05:51.191Z,3.70
2023-02-28T03:10:58.511Z,3.93
2023-02-28T03:16:24.734Z,4.07
2023-02-28T03:21:33.098Z,4.90
2023-02-28T03:26:40.779Z,4.30
2023-02-28T03:31:48.824Z,4.05
2023-02-28T03:36:56.252Z,4.05
2023-02-28T03:42:01.056Z,4.22
2023-02-28T03:47:08.869Z,4.07
2023-02-28T03:52:17.824Z,4.22
2023-02-28T03:57:28.567Z,3.55
2023-02-28T04:02:31.355Z,4.68
2023-02-28T04:07:35.526Z,4.32
2023-02-28T04:12:37.783Z,4.13
2023-02-28T04:17:39.963Z,4.57
2023-02-28T04:22:43.564Z,4.13
2023-02-28T04:27:45.654Z,4.25
2023-02-28T04:32:47.723Z,4.13
2023-02-28T04:37:51.194Z,5.32
2023-02-28T04:42:53.312Z,4.63
2023-02-28T04:47:55.477Z,5.65
2023-02-28T04:52:59.590Z,5.15
2023-02-28T04:58:01.830Z,4.95
2023-02-28T05:03:04.089Z,5.07
2023-02-28T05:08:07.655Z,4.55
2023-02-28T05:13:12.690Z,4.32
2023-02-28T05:18:14.906Z,4.65
2023-02-28T05:23:20.846Z,4.85
2023-02-28T05:28:23.198Z,5.15
2023-02-28T05:33:25.296Z,4.75
2023-02-28T05:38:28.797Z,4.90
2023-02-28T05:43:30.942Z,5.40
2023-02-28T05:48:33.712Z,4.78
2023-02-28T05:53:37.465Z,5.10
2023-02-28T05:58:39.607Z,4.30
2023-02-28T06:03:41.774Z,5.07
2023-02-28T06:08:45.420Z,6.18
2023-02-28T06:13:47.781Z,8.75
2023-02-28T06:18:49.936Z,7.05
2023-02-28T06:23:53.506Z,8.40
2023-02-28T06:28:56.366Z,8.35
2023-02-28T06:34:01.687Z,7.93
2023-02-28T06:39:05.464Z,10.93
2023-02-28T06:44:13.469Z,7.05
2023-02-28T06:49:16.467Z,7.50
2023-02-28T06:54:20.173Z,7.18
2023-02-28T06:59:22.750Z,8.50
2023-02-28T07:04:24.973Z,9.27
2023-02-28T07:09:28.682Z,6.15
2023-02-28T07:14:30.821Z,5.85
2023-02-28T07:19:33.159Z,5.15
2023-02-28T07:24:36.687Z,5.40
2023-02-28T07:29:38.946Z,7.90
2023-02-28T07:34:41.080Z,5.32
2023-02-28T07:39:44.597Z,4.32
2023-02-28T07:44:47.664Z,4.78
2023-02-28T07:49:49.914Z,4.45
2023-02-28T07:54:53.845Z,4.50
2023-02-28T07:59:55.987Z,4.88
2023-02-28T08:04:58.247Z,5.03
2023-02-28T08:10:01.778Z,16.38
2023-02-28T08:15:04.514Z,5.00
2023-02-28T08:20:08.185Z,4.15
2023-02-28T08:25:11.890Z,5.72
2023-02-28T08:30:15.419Z,5.05
2023-02-28T08:35:17.993Z,4.95
2023-02-28T08:40:21.814Z,7.25
2023-02-28T08:45:24.083Z,3.78
2023-02-28T08:50:26.285Z,3.35
2023-02-28T08:55:29.814Z,3.55
2023-02-28T09:00:31.915Z,3.35
2023-02-28T09:05:34.245Z,3.58
2023-02-28T09:10:38.000Z,4.47
2023-02-28T09:15:40.303Z,4.50
2023-02-28T09:20:43.212Z,3.53
2023-02-28T09:25:51.873Z,3.30
2023-02-28T09:30:55.736Z,3.83
2023-02-28T09:36:02.660Z,3.88
2023-02-28T09:46:34.372Z,3.22
2023-02-28T09:51:46.638Z,3.22
2023-02-28T09:56:53.327Z,3.72
2023-02-28T10:02:04.734Z,3.83
2023-02-28T10:07:18.376Z,4.00
2023-02-28T10:12:22.098Z,4.25
2023-02-28T10:17:31.110Z,4.07
2023-02-28T10:22:39.712Z,3.92
2023-02-28T10:27:43.446Z,4.05
2023-02-28T10:32:51.812Z,4.00
2023-02-28T10:37:57.405Z,3.65
2023-02-28T10:43:02.949Z,4.13
2023-02-28T10:48:07.576Z,4.13
2023-02-28T10:53:26.002Z,4.20
2023-02-28T10:58:32.327Z,3.85
2023-02-28T11:03:36.428Z,3.43
2023-02-28T11:08:47.894Z,3.40
2023-02-28T11:13:54.217Z,3.67
2023-02-28T11:18:58.463Z,3.70
2023-02-28T11:24:05.005Z,3.58
2023-02-28T11:29:18.347Z,3.33
2023-02-28T11:34:29.417Z,4.13
2023-02-28T11:39:32.385Z,3.38
2023-02-28T11:44:49.231Z,3.50
2023-02-28T11:50:04.650Z,3.65
2023-02-28T11:55:18.333Z,4.00
2023-02-28T12:00:37.386Z,2.97
2023-02-28T12:05:44.919Z,3.85
2023-02-28T12:11:01.398Z,4.18
2023-02-28T12:16:43.345Z,3.40
2023-02-28T12:22:12.712Z,3.90
2023-02-28T12:27:18.373Z,3.30
2023-02-28T12:32:27.833Z,5.82
2023-02-28T12:37:37.617Z,5.38
2023-02-28T12:42:45.258Z,3.63
2023-02-28T12:47:56.092Z,4.15
2023-02-28T12:53:04.306Z,3.75
2023-02-28T12:58:14.138Z,3.58
2023-02-28T13:03:53.171Z,3.22
2023-02-28T13:09:09.661Z,3.67
2023-02-28T13:14:27.829Z,3.57
2023-02-28T13:19:34.754Z,3.47
2023-02-28T13:24:55.536Z,3.80
2023-02-28T13:29:57.845Z,3.58
2023-02-28T13:35:38.270Z,3.88
2023-02-28T13:40:40.715Z,4.25
2023-02-28T13:46:10.855Z,3.80
2023-02-28T13:51:45.248Z,4.47
2023-02-28T13:57:01.440Z,3.83
2023-02-28T14:02:45.964Z,3.38
2023-02-28T14:07:53.559Z,3.25
2023-02-28T14:13:02.323Z,3.10
2023-02-28T14:18:15.592Z,2.85
2023-02-28T14:23:36.301Z,2.80
2023-02-28T14:28:51.848Z,3.55
2023-02-28T14:34:18.508Z,3.70
2023-02-28T14:39:25.050Z,4.10
2023-02-28T14:44:29.417Z,3.42
2023-02-28T14:49:35.282Z,3.88
2023-02-28T14:54:39.680Z,3.90
2023-02-28T14:59:41.909Z,3.67
2023-02-28T15:04:44.197Z,4.22
2023-02-28T15:09:47.967Z,3.55
2023-02-28T15:14:52.177Z,3.78
2023-02-28T15:19:55.540Z,3.38
2023-02-28T15:24:59.850Z,3.75
2023-02-28T15:30:07.992Z,2.92
2023-02-28T15:35:26.354Z,3.70
2023-02-28T15:40:33.289Z,4.85
2023-02-28T15:45:39.171Z,4.72
2023-02-28T15:50:42.203Z,3.50
2023-02-28T15:55:46.548Z,2.92
2023-02-28T16:01:07.069Z,3.05
2023-02-28T16:06:34.815Z,2.78
2023-02-28T16:11:41.655Z,2.67
2023-02-28T16:16:45.720Z,3.25
2023-02-28T16:21:48.036Z,2.72
2023-02-28T16:26:54.979Z,2.78
2023-02-28T16:31:58.024Z,3.05
2023-02-28T16:37:00.229Z,2.63
2023-02-28T16:42:04.030Z,2.75
2023-02-28T16:47:06.238Z,2.60
2023-02-28T16:52:08.537Z,2.03
2023-02-28T16:57:23.544Z,2.90
2023-02-28T17:07:35.223Z,3.42
2023-02-28T17:12:38.762Z,3.10
2023-02-28T17:17:42.526Z,2.90
2023-02-28T17:22:44.979Z,3.22
2023-02-28T17:27:48.645Z,3.22
2023-02-28T17:32:50.968Z,3.75
2023-02-28T17:37:53.426Z,4.70
2023-02-28T17:42:57.023Z,4.10
2023-02-28T17:47:59.133Z,4.60
2023-02-28T17:53:01.523Z,3.90
2023-02-28T17:58:05.258Z,3.42
2023-02-28T18:03:07.495Z,2.90
2023-02-28T18:08:11.464Z,3.30
2023-02-28T18:13:14.983Z,2.60
2023-02-28T18:18:17.118Z,2.78
2023-02-28T18:23:19.224Z,3.70
2023-02-28T18:28:22.750Z,2.83
2023-02-28T18:33:24.850Z,3.92
2023-02-28T18:38:27.230Z,4.43
2023-02-28T18:43:33.192Z,4.00
2023-02-28T18:48:35.991Z,4.68
2023-02-28T18:53:40.267Z,3.53
2023-02-28T18:58:44.041Z,5.78
2023-02-28T19:03:46.200Z,5.60
2023-02-28T19:08:48.565Z,5.15
2023-02-28T19:13:52.246Z,5.05
2023-02-28T19:18:54.918Z,5.10
2023-02-28T19:23:57.061Z,7.80
2023-02-28T19:29:02.785Z,6.13
2023-02-28T19:34:04.918Z,5.10
2023-02-28T19:39:07.044Z,6.28
2023-02-28T19:44:10.578Z,5.90
2023-02-28T19:49:12.624Z,6.90
2023-02-28T19:54:14.730Z,6.80
2023-02-28T19:59:21.534Z,7.03
2023-02-28T20:09:30.568Z,6.03
2023-02-28T20:14:34.161Z,5.63
2023-02-28T20:19:36.394Z,5.35
2023-02-28T20:24:38.595Z,7.88
2023-02-28T20:29:42.304Z,19.40
2023-02-28T20:34:44.449Z,19.75
2023-02-28T20:39:46.589Z,18.90
2023-02-28T20:44:50.153Z,13.00
2023-02-28T20:49:52.274Z,10.35
2023-02-28T20:54:54.426Z,10.10
2023-02-28T20:59:57.968Z,7.72
2023-02-28T21:05:00.118Z,8.75
2023-02-28T21:10:02.274Z,12.90
2023-02-28T21:15:06.971Z,13.07
2023-02-28T21:20:10.446Z,12.13
2023-02-28T21:25:12.556Z,10.60
2023-02-28T21:30:17.483Z,10.85
2023-02-28T21:35:19.646Z,10.55
2023-02-28T21:40:21.881Z,11.57
2023-02-28T21:45:25.620Z,11.15
2023-02-28T21:50:27.744Z,16.58
2023-02-28T21:55:30.037Z,16.65
2023-02-28T22:00:33.542Z,14.95
2023-02-28T22:05:35.687Z,13.55
2023-02-28T22:10:37.818Z,10.70
2023-02-28T22:15:41.390Z,13.70
2023-02-28T22:20:43.525Z,13.68
2023-02-28T22:25:45.724Z,10.32
2023-02-28T22:30:50.667Z,10.70
2023-02-28T22:35:52.905Z,9.95
2023-02-28T22:40:56.946Z,10.20
2023-02-28T22:46:04.073Z,9.27
2023-02-28T22:56:11.410Z,8.77
2023-02-28T23:01:17.075Z,8.38
2023-02-28T23:06:22.604Z,8.00
2023-02-28T23:11:27.266Z,9.00
2023-02-28T23:16:33.828Z,8.27
2023-02-28T23:21:36.703Z,7.85
2023-02-28T23:26:41.167Z,7.38
2023-02-28T23:31:45.362Z,6.65
2023-02-28T23:36:47.582Z,7.35
2023-02-28T23:41:50.246Z,7.70
2023-02-28T23:46:54.115Z,7.75
2023-02-28T23:51:56.245Z,7.53
2023-02-28T23:56:58.598Z,7.80
